Terminal Aerodrome Forecast
Issued by NWS

Home | Current Version | Previous Version | Text Only | Print | Product List | Glossary On
Versions: 1 2 3 4 5 6 7 8 9 10 11 12 13 14
000
FTUS44 KTSA 250500
TAFFYV
TAF
KFYV 250520Z 2506/2606 17014KT P6SM SCT100 SCT250
     FM251500 24015G23KT P6SM SCT150
     FM260000 27005KT P6SM SCT100=

USA.gov is the U.S. government's official web portal to all federal, state and local government web resources and services.